sensor_id;sensor_type;location;lat;lon;timestamp;pressure;altitude;pressure_sealevel;temperature;humidity
6343;BME280;3204;42.698;23.298;2022-07-29T00:01:20;95112.66;;;22.14;74.90
6343;BME280;3204;42.698;23.298;2022-07-29T00:03:46;95123.38;;;22.19;75.06
6343;BME280;3204;42.698;23.298;2022-07-29T00:06:12;95130.25;;;22.32;74.26
6343;BME280;3204;42.698;23.298;2022-07-29T00:08:38;95129.47;;;22.35;74.31
6343;BME280;3204;42.698;23.298;2022-07-29T00:11:04;95134.16;;;22.31;73.87
6343;BME280;3204;42.698;23.298;2022-07-29T00:13:29;95131.31;;;22.24;74.04
6343;BME280;3204;42.698;23.298;2022-07-29T00:15:55;95126.28;;;22.33;74.20
6343;BME280;3204;42.698;23.298;2022-07-29T00:18:20;95131.28;;;22.54;74.20
6343;BME280;3204;42.698;23.298;2022-07-29T00:20:46;95135.31;;;22.63;73.80
6343;BME280;3204;42.698;23.298;2022-07-29T00:23:11;95123.56;;;22.73;73.55
6343;BME280;3204;42.698;23.298;2022-07-29T00:25:37;95122.41;;;22.74;73.39
6343;BME280;3204;42.698;23.298;2022-07-29T00:28:02;95124.50;;;22.91;73.25
6343;BME280;3204;42.698;23.298;2022-07-29T00:30:28;95123.63;;;22.80;73.48
6343;BME280;3204;42.698;23.298;2022-07-29T00:32:53;95127.94;;;22.74;73.76
6343;BME280;3204;42.698;23.298;2022-07-29T00:35:19;95129.81;;;22.67;74.10
6343;BME280;3204;42.698;23.298;2022-07-29T00:38:03;95133.38;;;22.67;74.22
6343;BME280;3204;42.698;23.298;2022-07-29T00:40:28;95143.22;;;22.61;74.83
6343;BME280;3204;42.698;23.298;2022-07-29T00:42:54;95146.00;;;22.65;74.60
6343;BME280;3204;42.698;23.298;2022-07-29T00:45:20;95134.78;;;22.51;74.99
6343;BME280;3204;42.698;23.298;2022-07-29T00:47:47;95136.00;;;22.20;75.80
6343;BME280;3204;42.698;23.298;2022-07-29T00:50:13;95138.09;;;21.97;76.92
6343;BME280;3204;42.698;23.298;2022-07-29T00:52:40;95135.94;;;21.80;77.65
6343;BME280;3204;42.698;23.298;2022-07-29T00:55:08;95143.50;;;21.87;77.48
6343;BME280;3204;42.698;23.298;2022-07-29T00:57:35;95143.69;;;21.71;77.99
6343;BME280;3204;42.698;23.298;2022-07-29T01:00:04;95133.81;;;21.70;77.90
6343;BME280;3204;42.698;23.298;2022-07-29T01:02:29;95126.69;;;21.69;78.19
6343;BME280;3204;42.698;23.298;2022-07-29T01:04:55;95132.91;;;21.63;78.49
6343;BME280;3204;42.698;23.298;2022-07-29T01:07:24;95128.59;;;21.65;78.17
6343;BME280;3204;42.698;23.298;2022-07-29T01:09:51;95124.66;;;21.66;78.17
6343;BME280;3204;42.698;23.298;2022-07-29T01:12:23;95119.69;;;21.75;77.77
6343;BME280;3204;42.698;23.298;2022-07-29T01:14:50;95111.81;;;21.77;77.28
6343;BME280;3204;42.698;23.298;2022-07-29T01:26:00;95114.50;;;21.70;77.48
6343;BME280;3204;42.698;23.298;2022-07-29T01:31:07;95099.88;;;21.70;77.44
6343;BME280;3204;42.698;23.298;2022-07-29T01:33:42;95098.69;;;21.71;76.98
6343;BME280;3204;42.698;23.298;2022-07-29T01:36:22;95097.53;;;21.72;77.09
6343;BME280;3204;42.698;23.298;2022-07-29T01:38:55;95096.03;;;21.78;76.89
6343;BME280;3204;42.698;23.298;2022-07-29T01:41:26;95086.66;;;21.86;76.74
6343;BME280;3204;42.698;23.298;2022-07-29T01:43:56;95105.38;;;21.99;76.30
6343;BME280;3204;42.698;23.298;2022-07-29T01:46:33;95108.19;;;22.03;76.27
6343;BME280;3204;42.698;23.298;2022-07-29T01:49:06;95105.81;;;22.05;76.06
6343;BME280;3204;42.698;23.298;2022-07-29T01:51:46;95098.69;;;22.00;76.09
6343;BME280;3204;42.698;23.298;2022-07-29T01:54:18;95103.03;;;22.01;76.01
6343;BME280;3204;42.698;23.298;2022-07-29T01:56:47;95093.53;;;21.99;76.10
6343;BME280;3204;42.698;23.298;2022-07-29T01:59:14;95084.72;;;21.90;76.40
6343;BME280;3204;42.698;23.298;2022-07-29T02:01:41;95087.50;;;21.90;76.45
6343;BME280;3204;42.698;23.298;2022-07-29T02:04:09;95084.75;;;21.93;76.39
6343;BME280;3204;42.698;23.298;2022-07-29T02:06:37;95098.28;;;21.98;76.32
6343;BME280;3204;42.698;23.298;2022-07-29T02:09:03;95089.66;;;22.03;76.33
6343;BME280;3204;42.698;23.298;2022-07-29T02:11:31;95083.38;;;22.10;76.13
6343;BME280;3204;42.698;23.298;2022-07-29T02:14:00;95084.28;;;22.17;75.86
6343;BME280;3204;42.698;23.298;2022-07-29T02:16:28;95087.06;;;22.21;75.70
6343;BME280;3204;42.698;23.298;2022-07-29T02:18:57;95080.38;;;22.25;75.65
6343;BME280;3204;42.698;23.298;2022-07-29T02:21:26;95079.63;;;22.25;75.60
6343;BME280;3204;42.698;23.298;2022-07-29T02:23:54;95078.34;;;22.19;75.90
6343;BME280;3204;42.698;23.298;2022-07-29T02:26:22;95077.53;;;22.15;76.27
6343;BME280;3204;42.698;23.298;2022-07-29T02:28:50;95075.91;;;22.14;76.19
6343;BME280;3204;42.698;23.298;2022-07-29T02:31:18;95075.53;;;22.12;76.39
6343;BME280;3204;42.698;23.298;2022-07-29T02:33:45;95064.09;;;22.13;76.40
6343;BME280;3204;42.698;23.298;2022-07-29T02:36:11;95062.06;;;22.10;76.42
6343;BME280;3204;42.698;23.298;2022-07-29T02:38:37;95061.72;;;22.15;76.37
6343;BME280;3204;42.698;23.298;2022-07-29T02:41:18;95064.59;;;22.22;76.22
6343;BME280;3204;42.698;23.298;2022-07-29T02:43:47;95061.81;;;22.22;75.89
6343;BME280;3204;42.698;23.298;2022-07-29T02:46:19;95064.53;;;22.19;75.89
6343;BME280;3204;42.698;23.298;2022-07-29T02:48:53;95063.38;;;22.20;75.59
6343;BME280;3204;42.698;23.298;2022-07-29T02:51:36;95060.97;;;22.18;75.78
6343;BME280;3204;42.698;23.298;2022-07-29T02:54:07;95063.06;;;22.28;75.66
6343;BME280;3204;42.698;23.298;2022-07-29T02:56:34;95064.94;;;22.17;76.05
6343;BME280;3204;42.698;23.298;2022-07-29T02:59:04;95070.13;;;22.22;76.45
6343;BME280;3204;42.698;23.298;2022-07-29T03:01:33;95063.72;;;22.15;76.91
6343;BME280;3204;42.698;23.298;2022-07-29T03:04:03;95066.13;;;22.20;77.38
6343;BME280;3204;42.698;23.298;2022-07-29T03:06:30;95062.19;;;22.21;77.67
6343;BME280;3204;42.698;23.298;2022-07-29T03:08:58;95055.75;;;22.10;78.40
6343;BME280;3204;42.698;23.298;2022-07-29T03:11:25;95067.38;;;21.89;79.17
6343;BME280;3204;42.698;23.298;2022-07-29T03:13:51;95050.50;;;21.68;80.28
6343;BME280;3204;42.698;23.298;2022-07-29T03:16:18;95050.38;;;21.58;81.52
6343;BME280;3204;42.698;23.298;2022-07-29T03:18:44;95062.88;;;21.48;82.11
6343;BME280;3204;42.698;23.298;2022-07-29T03:21:10;95062.69;;;21.34;82.50
6343;BME280;3204;42.698;23.298;2022-07-29T03:23:36;95058.34;;;21.33;82.59
6343;BME280;3204;42.698;23.298;2022-07-29T03:26:01;95066.63;;;21.33;82.70
6343;BME280;3204;42.698;23.298;2022-07-29T03:28:27;95064.09;;;21.21;83.07
6343;BME280;3204;42.698;23.298;2022-07-29T03:30:53;95054.38;;;21.05;83.84
6343;BME280;3204;42.698;23.298;2022-07-29T03:33:19;95067.41;;;21.04;84.17
6343;BME280;3204;42.698;23.298;2022-07-29T03:35:44;95072.72;;;21.20;83.97
6343;BME280;3204;42.698;23.298;2022-07-29T03:38:10;95072.16;;;21.33;83.25
6343;BME280;3204;42.698;23.298;2022-07-29T03:40:40;95072.31;;;21.44;83.05
6343;BME280;3204;42.698;23.298;2022-07-29T03:43:08;95076.47;;;21.60;82.36
6343;BME280;3204;42.698;23.298;2022-07-29T03:45:35;95071.47;;;21.69;81.88
6343;BME280;3204;42.698;23.298;2022-07-29T03:48:08;95083.78;;;21.75;81.48
6343;BME280;3204;42.698;23.298;2022-07-29T03:50:35;95079.09;;;21.79;80.68
6343;BME280;3204;42.698;23.298;2022-07-29T03:53:02;95081.03;;;21.75;80.40
6343;BME280;3204;42.698;23.298;2022-07-29T03:55:29;95088.13;;;21.76;80.57
6343;BME280;3204;42.698;23.298;2022-07-29T03:57:57;95084.28;;;21.84;80.26
6343;BME280;3204;42.698;23.298;2022-07-29T04:00:25;95088.72;;;21.92;79.93
6343;BME280;3204;42.698;23.298;2022-07-29T04:02:51;95089.50;;;21.93;79.86
6343;BME280;3204;42.698;23.298;2022-07-29T04:05:17;95094.34;;;21.99;80.00
6343;BME280;3204;42.698;23.298;2022-07-29T04:07:44;95091.28;;;22.11;79.41
6343;BME280;3204;42.698;23.298;2022-07-29T04:10:10;95087.41;;;22.16;79.14
6343;BME280;3204;42.698;23.298;2022-07-29T04:12:36;95089.84;;;22.21;78.84
6343;BME280;3204;42.698;23.298;2022-07-29T04:15:05;95087.94;;;22.28;78.37
6343;BME280;3204;42.698;23.298;2022-07-29T04:17:30;95084.88;;;22.40;77.23
6343;BME280;3204;42.698;23.298;2022-07-29T04:19:56;95077.19;;;22.20;77.91
6343;BME280;3204;42.698;23.298;2022-07-29T04:22:21;95079.97;;;22.20;78.48
6343;BME280;3204;42.698;23.298;2022-07-29T04:24:47;95085.84;;;22.18;78.50
6343;BME280;3204;42.698;23.298;2022-07-29T04:27:12;95089.00;;;22.17;78.71
6343;BME280;3204;42.698;23.298;2022-07-29T04:29:38;95082.72;;;22.20;78.61
6343;BME280;3204;42.698;23.298;2022-07-29T04:32:03;95076.09;;;22.31;78.40
6343;BME280;3204;42.698;23.298;2022-07-29T04:34:29;95093.19;;;22.40;78.42
6343;BME280;3204;42.698;23.298;2022-07-29T04:36:55;95097.94;;;22.40;77.89
6343;BME280;3204;42.698;23.298;2022-07-29T04:39:21;95098.81;;;22.47;77.86
6343;BME280;3204;42.698;23.298;2022-07-29T04:41:46;95104.41;;;22.54;77.12
6343;BME280;3204;42.698;23.298;2022-07-29T04:44:12;95101.28;;;22.59;77.27
6343;BME280;3204;42.698;23.298;2022-07-29T04:46:38;95099.72;;;22.62;77.06
6343;BME280;3204;42.698;23.298;2022-07-29T04:49:03;95101.75;;;22.65;76.88
6343;BME280;3204;42.698;23.298;2022-07-29T04:51:29;95110.91;;;22.72;76.76
6343;BME280;3204;42.698;23.298;2022-07-29T04:53:55;95111.78;;;22.83;76.22
6343;BME280;3204;42.698;23.298;2022-07-29T04:56:20;95119.00;;;22.95;76.00
6343;BME280;3204;42.698;23.298;2022-07-29T04:58:45;95113.19;;;23.07;75.49
6343;BME280;3204;42.698;23.298;2022-07-29T05:01:11;95109.69;;;23.13;75.08
6343;BME280;3204;42.698;23.298;2022-07-29T05:03:37;95110.06;;;23.12;74.32
6343;BME280;3204;42.698;23.298;2022-07-29T05:06:02;95115.09;;;22.99;74.72
6343;BME280;3204;42.698;23.298;2022-07-29T05:08:28;95110.41;;;23.03;74.95
6343;BME280;3204;42.698;23.298;2022-07-29T05:10:53;95106.47;;;23.11;74.80
6343;BME280;3204;42.698;23.298;2022-07-29T05:13:18;95110.16;;;23.22;74.23
6343;BME280;3204;42.698;23.298;2022-07-29T05:15:44;95112.97;;;23.29;74.05
6343;BME280;3204;42.698;23.298;2022-07-29T05:18:09;95117.75;;;23.36;73.59
6343;BME280;3204;42.698;23.298;2022-07-29T05:20:35;95124.13;;;23.36;74.00
6343;BME280;3204;42.698;23.298;2022-07-29T05:23:01;95123.28;;;23.32;73.91
6343;BME280;3204;42.698;23.298;2022-07-29T05:25:28;95114.63;;;23.41;73.17
6343;BME280;3204;42.698;23.298;2022-07-29T05:27:54;95120.19;;;23.44;73.17
6343;BME280;3204;42.698;23.298;2022-07-29T05:30:20;95109.63;;;23.60;71.49
6343;BME280;3204;42.698;23.298;2022-07-29T05:32:46;95110.47;;;23.71;70.65
6343;BME280;3204;42.698;23.298;2022-07-29T05:35:12;95123.56;;;23.74;70.04
6343;BME280;3204;42.698;23.298;2022-07-29T05:37:38;95121.22;;;23.83;69.30
6343;BME280;3204;42.698;23.298;2022-07-29T05:40:04;95115.69;;;23.87;68.62
6343;BME280;3204;42.698;23.298;2022-07-29T05:42:30;95124.03;;;23.90;67.83
6343;BME280;3204;42.698;23.298;2022-07-29T05:44:55;95133.00;;;23.66;67.89
6343;BME280;3204;42.698;23.298;2022-07-29T05:47:22;95131.31;;;23.51;68.03
6343;BME280;3204;42.698;23.298;2022-07-29T05:49:48;95128.13;;;23.46;69.76
6343;BME280;3204;42.698;23.298;2022-07-29T05:52:13;95124.69;;;23.66;69.27
6343;BME280;3204;42.698;23.298;2022-07-29T05:54:39;95123.50;;;23.67;68.98
6343;BME280;3204;42.698;23.298;2022-07-29T05:57:05;95125.88;;;23.65;68.98
6343;BME280;3204;42.698;23.298;2022-07-29T05:59:31;95130.59;;;23.61;69.48
6343;BME280;3204;42.698;23.298;2022-07-29T06:01:57;95127.44;;;23.66;69.34
6343;BME280;3204;42.698;23.298;2022-07-29T06:04:23;95131.41;;;23.65;69.42
6343;BME280;3204;42.698;23.298;2022-07-29T06:06:48;95133.63;;;23.39;69.75
6343;BME280;3204;42.698;23.298;2022-07-29T06:09:13;95135.59;;;23.38;69.88
6343;BME280;3204;42.698;23.298;2022-07-29T06:11:40;95125.63;;;23.30;70.29
6343;BME280;3204;42.698;23.298;2022-07-29T06:14:05;95131.63;;;23.39;70.52
6343;BME280;3204;42.698;23.298;2022-07-29T06:16:31;95133.81;;;23.67;69.66
6343;BME280;3204;42.698;23.298;2022-07-29T06:18:56;95136.94;;;23.62;68.36
6343;BME280;3204;42.698;23.298;2022-07-29T06:21:22;95135.69;;;23.52;68.95
6343;BME280;3204;42.698;23.298;2022-07-29T06:23:47;95141.34;;;23.73;68.36
6343;BME280;3204;42.698;23.298;2022-07-29T06:26:13;95129.59;;;23.94;68.14
6343;BME280;3204;42.698;23.298;2022-07-29T06:28:39;95136.84;;;24.19;67.27
6343;BME280;3204;42.698;23.298;2022-07-29T06:31:05;95134.06;;;24.16;66.33
6343;BME280;3204;42.698;23.298;2022-07-29T06:33:30;95133.34;;;24.36;66.66
6343;BME280;3204;42.698;23.298;2022-07-29T06:35:56;95140.59;;;24.65;65.94
6343;BME280;3204;42.698;23.298;2022-07-29T06:38:22;95136.25;;;24.85;64.91
6343;BME280;3204;42.698;23.298;2022-07-29T06:40:47;95137.84;;;25.00;64.27
6343;BME280;3204;42.698;23.298;2022-07-29T06:43:30;95131.91;;;25.12;63.56
6343;BME280;3204;42.698;23.298;2022-07-29T06:46:15;95144.59;;;25.17;63.66
6343;BME280;3204;42.698;23.298;2022-07-29T06:48:44;95128.72;;;25.10;63.82
6343;BME280;3204;42.698;23.298;2022-07-29T06:51:11;95132.75;;;25.30;63.13
6343;BME280;3204;42.698;23.298;2022-07-29T06:53:37;95129.94;;;25.48;62.65
6343;BME280;3204;42.698;23.298;2022-07-29T06:56:04;95127.09;;;25.69;62.76
6343;BME280;3204;42.698;23.298;2022-07-29T06:58:31;95127.47;;;25.81;61.73
6343;BME280;3204;42.698;23.298;2022-07-29T07:00:58;95131.84;;;25.86;59.99
6343;BME280;3204;42.698;23.298;2022-07-29T07:03:24;95128.66;;;25.98;60.68
6343;BME280;3204;42.698;23.298;2022-07-29T07:05:51;95112.38;;;25.86;60.12
6343;BME280;3204;42.698;23.298;2022-07-29T07:08:17;95116.72;;;26.01;60.05
6343;BME280;3204;42.698;23.298;2022-07-29T07:10:42;95117.53;;;25.94;60.21
6343;BME280;3204;42.698;23.298;2022-07-29T07:13:08;95121.00;;;26.26;59.34
6343;BME280;3204;42.698;23.298;2022-07-29T07:15:34;95106.63;;;26.38;59.17
6343;BME280;3204;42.698;23.298;2022-07-29T07:18:00;95113.31;;;26.58;58.47
6343;BME280;3204;42.698;23.298;2022-07-29T07:20:25;95108.34;;;26.87;58.02
6343;BME280;3204;42.698;23.298;2022-07-29T07:22:51;95112.53;;;27.12;56.31
6343;BME280;3204;42.698;23.298;2022-07-29T07:25:16;95118.06;;;27.19;56.39
6343;BME280;3204;42.698;23.298;2022-07-29T07:27:43;95113.56;;;27.33;55.69
6343;BME280;3204;42.698;23.298;2022-07-29T07:30:09;95106.66;;;27.48;55.39
6343;BME280;3204;42.698;23.298;2022-07-29T07:32:35;95090.50;;;27.32;55.75
6343;BME280;3204;42.698;23.298;2022-07-29T07:35:01;95098.44;;;27.33;55.32
6343;BME280;3204;42.698;23.298;2022-07-29T07:37:26;95106.63;;;27.55;55.04
6343;BME280;3204;42.698;23.298;2022-07-29T07:39:52;95102.78;;;27.79;54.94
6343;BME280;3204;42.698;23.298;2022-07-29T07:42:18;95103.38;;;27.15;55.53
6343;BME280;3204;42.698;23.298;2022-07-29T07:44:44;95103.31;;;27.23;55.42
6343;BME280;3204;42.698;23.298;2022-07-29T07:47:11;95104.72;;;27.45;54.61
6343;BME280;3204;42.698;23.298;2022-07-29T07:49:37;95117.50;;;27.42;53.86
6343;BME280;3204;42.698;23.298;2022-07-29T07:52:03;95108.78;;;27.37;54.57
6343;BME280;3204;42.698;23.298;2022-07-29T07:54:29;95102.09;;;27.68;54.46
6343;BME280;3204;42.698;23.298;2022-07-29T07:56:55;95111.53;;;27.84;53.08
6343;BME280;3204;42.698;23.298;2022-07-29T07:59:20;95107.13;;;27.87;53.47
6343;BME280;3204;42.698;23.298;2022-07-29T08:01:45;95102.78;;;27.79;53.79
6343;BME280;3204;42.698;23.298;2022-07-29T08:04:11;95096.06;;;28.10;52.98
6343;BME280;3204;42.698;23.298;2022-07-29T08:06:36;95100.38;;;28.48;52.60
6343;BME280;3204;42.698;23.298;2022-07-29T08:09:05;95108.56;;;28.88;51.86
6343;BME280;3204;42.698;23.298;2022-07-29T08:11:31;95103.69;;;28.96;51.03
6343;BME280;3204;42.698;23.298;2022-07-29T08:13:57;95094.66;;;29.15;51.27
6343;BME280;3204;42.698;23.298;2022-07-29T08:16:22;95099.13;;;29.09;51.07
6343;BME280;3204;42.698;23.298;2022-07-29T08:18:50;95114.34;;;28.78;51.04
6343;BME280;3204;42.698;23.298;2022-07-29T08:21:16;95096.50;;;28.95;50.67
6343;BME280;3204;42.698;23.298;2022-07-29T08:23:44;95100.47;;;29.01;49.98
6343;BME280;3204;42.698;23.298;2022-07-29T08:26:15;95103.81;;;29.15;50.19
6343;BME280;3204;42.698;23.298;2022-07-29T08:28:43;95093.38;;;28.93;49.95
6343;BME280;3204;42.698;23.298;2022-07-29T08:31:12;95100.59;;;29.17;49.79
6343;BME280;3204;42.698;23.298;2022-07-29T08:33:38;95093.78;;;29.41;49.19
6343;BME280;3204;42.698;23.298;2022-07-29T08:36:05;95092.00;;;29.77;48.38
6343;BME280;3204;42.698;23.298;2022-07-29T08:38:30;95092.31;;;30.02;48.57
6343;BME280;3204;42.698;23.298;2022-07-29T08:40:56;95099.22;;;30.17;47.42
6343;BME280;3204;42.698;23.298;2022-07-29T08:43:22;95098.63;;;30.45;46.70
6343;BME280;3204;42.698;23.298;2022-07-29T08:45:49;95097.19;;;30.76;46.13
6343;BME280;3204;42.698;23.298;2022-07-29T08:48:23;95085.19;;;30.75;46.03
6343;BME280;3204;42.698;23.298;2022-07-29T08:50:55;95089.16;;;30.94;45.55
6343;BME280;3204;42.698;23.298;2022-07-29T08:53:21;95089.25;;;30.90;45.79
6343;BME280;3204;42.698;23.298;2022-07-29T08:55:48;95091.94;;;30.58;45.49
6343;BME280;3204;42.698;23.298;2022-07-29T08:58:15;95087.16;;;30.94;44.88
6343;BME280;3204;42.698;23.298;2022-07-29T09:00:45;95093.47;;;31.14;44.31
6343;BME280;3204;42.698;23.298;2022-07-29T09:03:15;95089.59;;;30.57;44.99
6343;BME280;3204;42.698;23.298;2022-07-29T09:05:42;95078.72;;;30.59;44.78
6343;BME280;3204;42.698;23.298;2022-07-29T09:08:08;95073.69;;;30.70;45.06
6343;BME280;3204;42.698;23.298;2022-07-29T09:10:37;95073.22;;;31.07;44.46
6343;BME280;3204;42.698;23.298;2022-07-29T09:13:03;95080.59;;;31.17;43.26
6343;BME280;3204;42.698;23.298;2022-07-29T09:15:28;95080.28;;;31.47;42.99
6343;BME280;3204;42.698;23.298;2022-07-29T09:17:54;95069.72;;;31.67;42.50
6343;BME280;3204;42.698;23.298;2022-07-29T09:20:22;95075.56;;;31.72;42.42
6343;BME280;3204;42.698;23.298;2022-07-29T09:22:48;95066.25;;;32.07;42.40
6343;BME280;3204;42.698;23.298;2022-07-29T09:25:34;95067.84;;;32.21;41.76
6343;BME280;3204;42.698;23.298;2022-07-29T09:28:11;95069.91;;;32.04;42.21
6343;BME280;3204;42.698;23.298;2022-07-29T09:30:54;95071.53;;;32.18;41.33
6343;BME280;3204;42.698;23.298;2022-07-29T09:33:24;95077.28;;;32.55;41.27
6343;BME280;3204;42.698;23.298;2022-07-29T09:36:06;95082.06;;;32.30;40.74
6343;BME280;3204;42.698;23.298;2022-07-29T09:38:33;95076.16;;;32.24;40.29
6343;BME280;3204;42.698;23.298;2022-07-29T09:41:00;95069.88;;;32.20;40.49
6343;BME280;3204;42.698;23.298;2022-07-29T09:43:26;95067.16;;;31.88;40.02
6343;BME280;3204;42.698;23.298;2022-07-29T09:45:51;95066.38;;;31.88;41.38
6343;BME280;3204;42.698;23.298;2022-07-29T09:48:22;95066.28;;;32.20;41.44
6343;BME280;3204;42.698;23.298;2022-07-29T09:50:48;95065.13;;;32.46;40.27
6343;BME280;3204;42.698;23.298;2022-07-29T09:53:36;95058.66;;;32.74;40.10
6343;BME280;3204;42.698;23.298;2022-07-29T09:56:03;95056.91;;;32.80;39.45
6343;BME280;3204;42.698;23.298;2022-07-29T09:58:29;95052.50;;;32.79;40.11
6343;BME280;3204;42.698;23.298;2022-07-29T10:00:55;95058.34;;;32.84;39.65
6343;BME280;3204;42.698;23.298;2022-07-29T10:03:22;95045.53;;;32.96;39.92
6343;BME280;3204;42.698;23.298;2022-07-29T10:08:29;95049.81;;;33.38;39.01
6343;BME280;3204;42.698;23.298;2022-07-29T10:11:10;95038.97;;;33.49;39.10
6343;BME280;3204;42.698;23.298;2022-07-29T10:13:36;95036.59;;;33.47;38.98
6343;BME280;3204;42.698;23.298;2022-07-29T10:16:03;95029.13;;;33.32;38.72
6343;BME280;3204;42.698;23.298;2022-07-29T10:18:29;95034.38;;;33.17;38.98
6343;BME280;3204;42.698;23.298;2022-07-29T10:20:55;95027.16;;;32.54;39.59
6343;BME280;3204;42.698;23.298;2022-07-29T10:23:22;95019.53;;;32.54;39.97
6343;BME280;3204;42.698;23.298;2022-07-29T10:25:48;95017.47;;;32.30;39.21
6343;BME280;3204;42.698;23.298;2022-07-29T10:28:14;95011.50;;;32.28;40.63
6343;BME280;3204;42.698;23.298;2022-07-29T10:30:40;95016.91;;;32.35;40.85
6343;BME280;3204;42.698;23.298;2022-07-29T10:36:19;95015.34;;;32.34;39.93
6343;BME280;3204;42.698;23.298;2022-07-29T10:41:33;95003.44;;;32.42;40.78
6343;BME280;3204;42.698;23.298;2022-07-29T10:44:17;94997.97;;;32.89;39.80
6343;BME280;3204;42.698;23.298;2022-07-29T10:46:44;95009.06;;;33.30;39.25
6343;BME280;3204;42.698;23.298;2022-07-29T10:49:12;94998.00;;;33.48;38.38
6343;BME280;3204;42.698;23.298;2022-07-29T10:52:05;94998.56;;;33.77;37.62
6343;BME280;3204;42.698;23.298;2022-07-29T10:57:12;94993.47;;;33.04;37.20
6343;BME280;3204;42.698;23.298;2022-07-29T10:59:48;94990.38;;;32.36;38.32
6343;BME280;3204;42.698;23.298;2022-07-29T11:02:44;94984.88;;;32.45;38.36
6343;BME280;3204;42.698;23.298;2022-07-29T11:05:19;94976.69;;;32.50;38.83
6343;BME280;3204;42.698;23.298;2022-07-29T11:10:39;94975.53;;;33.23;38.57
6343;BME280;3204;42.698;23.298;2022-07-29T11:13:05;94973.94;;;33.47;38.25
6343;BME280;3204;42.698;23.298;2022-07-29T11:15:56;94968.50;;;33.74;37.15
6343;BME280;3204;42.698;23.298;2022-07-29T11:18:22;94971.59;;;33.33;38.23
6343;BME280;3204;42.698;23.298;2022-07-29T11:20:49;94967.88;;;33.36;38.02
6343;BME280;3204;42.698;23.298;2022-07-29T11:23:31;94963.00;;;33.49;38.34
6343;BME280;3204;42.698;23.298;2022-07-29T11:31:44;94967.75;;;33.73;37.30
6343;BME280;3204;42.698;23.298;2022-07-29T11:34:29;94953.91;;;33.66;37.22
6343;BME280;3204;42.698;23.298;2022-07-29T11:39:36;94956.44;;;33.86;37.85
6343;BME280;3204;42.698;23.298;2022-07-29T11:45:03;94955.53;;;33.55;37.20
6343;BME280;3204;42.698;23.298;2022-07-29T11:47:32;94939.09;;;33.32;37.68
6343;BME280;3204;42.698;23.298;2022-07-29T11:49:59;94935.72;;;33.58;37.93
6343;BME280;3204;42.698;23.298;2022-07-29T11:52:36;94939.88;;;33.32;37.67
6343;BME280;3204;42.698;23.298;2022-07-29T11:55:09;94945.94;;;33.18;37.64
6343;BME280;3204;42.698;23.298;2022-07-29T11:57:36;94944.19;;;33.46;38.18
6343;BME280;3204;42.698;23.298;2022-07-29T12:00:04;94946.56;;;33.69;37.52
6343;BME280;3204;42.698;23.298;2022-07-29T12:02:42;94945.84;;;33.90;36.80
6343;BME280;3204;42.698;23.298;2022-07-29T12:05:09;94936.63;;;33.77;36.96
6343;BME280;3204;42.698;23.298;2022-07-29T12:07:37;94940.59;;;33.79;37.13
6343;BME280;3204;42.698;23.298;2022-07-29T12:10:04;94948.66;;;33.90;36.70
6343;BME280;3204;42.698;23.298;2022-07-29T12:12:30;94943.69;;;33.94;36.38
6343;BME280;3204;42.698;23.298;2022-07-29T12:14:55;94938.09;;;34.24;36.61
6343;BME280;3204;42.698;23.298;2022-07-29T12:17:29;94931.94;;;34.47;35.68
6343;BME280;3204;42.698;23.298;2022-07-29T12:19:55;94939.34;;;34.54;35.66
6343;BME280;3204;42.698;23.298;2022-07-29T12:22:35;94939.59;;;34.16;36.20
6343;BME280;3204;42.698;23.298;2022-07-29T12:25:12;94943.16;;;34.38;36.02
6343;BME280;3204;42.698;23.298;2022-07-29T12:27:40;94927.22;;;34.75;35.52
6343;BME280;3204;42.698;23.298;2022-07-29T12:30:08;94932.00;;;34.96;34.52
6343;BME280;3204;42.698;23.298;2022-07-29T12:32:42;94929.84;;;35.09;34.74
6343;BME280;3204;42.698;23.298;2022-07-29T12:35:11;94923.13;;;34.76;34.41
6343;BME280;3204;42.698;23.298;2022-07-29T12:37:39;94915.06;;;34.56;34.89
6343;BME280;3204;42.698;23.298;2022-07-29T12:40:07;94918.50;;;34.91;34.93
6343;BME280;3204;42.698;23.298;2022-07-29T12:42:34;94920.44;;;35.21;34.84
6343;BME280;3204;42.698;23.298;2022-07-29T12:45:00;94921.44;;;35.27;34.55
6343;BME280;3204;42.698;23.298;2022-07-29T12:47:27;94919.09;;;35.43;34.31
6343;BME280;3204;42.698;23.298;2022-07-29T12:50:13;94916.41;;;35.67;34.65
6343;BME280;3204;42.698;23.298;2022-07-29T12:52:44;94915.19;;;35.41;33.65
6343;BME280;3204;42.698;23.298;2022-07-29T12:55:10;94908.91;;;35.46;34.35
6343;BME280;3204;42.698;23.298;2022-07-29T12:57:47;94910.75;;;35.22;33.73
6343;BME280;3204;42.698;23.298;2022-07-29T13:00:13;94907.63;;;35.38;34.76
6343;BME280;3204;42.698;23.298;2022-07-29T13:02:41;94898.56;;;35.52;34.24
6343;BME280;3204;42.698;23.298;2022-07-29T13:05:08;94895.72;;;35.52;33.82
6343;BME280;3204;42.698;23.298;2022-07-29T13:07:34;94903.56;;;35.48;33.72
6343;BME280;3204;42.698;23.298;2022-07-29T13:13:06;94895.88;;;35.30;32.85
6343;BME280;3204;42.698;23.298;2022-07-29T13:15:34;94891.78;;;34.74;33.99
6343;BME280;3204;42.698;23.298;2022-07-29T13:18:00;94892.47;;;34.78;34.27
6343;BME280;3204;42.698;23.298;2022-07-29T13:20:27;94895.66;;;35.07;34.21
6343;BME280;3204;42.698;23.298;2022-07-29T13:22:56;94888.69;;;35.29;33.78
6343;BME280;3204;42.698;23.298;2022-07-29T13:25:29;94883.81;;;35.39;33.59
6343;BME280;3204;42.698;23.298;2022-07-29T13:27:56;94875.81;;;35.46;33.82
6343;BME280;3204;42.698;23.298;2022-07-29T13:30:22;94878.31;;;35.62;33.55
6343;BME280;3204;42.698;23.298;2022-07-29T13:32:48;94876.75;;;35.43;33.57
6343;BME280;3204;42.698;23.298;2022-07-29T13:35:14;94872.22;;;35.37;33.43
6343;BME280;3204;42.698;23.298;2022-07-29T13:37:40;94874.69;;;35.44;33.45
6343;BME280;3204;42.698;23.298;2022-07-29T13:40:07;94866.06;;;35.47;33.69
6343;BME280;3204;42.698;23.298;2022-07-29T13:42:33;94868.44;;;35.49;33.67
6343;BME280;3204;42.698;23.298;2022-07-29T13:44:59;94867.97;;;35.59;33.63
6343;BME280;3204;42.698;23.298;2022-07-29T13:47:25;94870.63;;;35.54;32.77
6343;BME280;3204;42.698;23.298;2022-07-29T13:49:51;94863.75;;;35.37;33.43
6343;BME280;3204;42.698;23.298;2022-07-29T13:52:18;94866.53;;;35.19;33.78
6343;BME280;3204;42.698;23.298;2022-07-29T13:54:44;94858.22;;;35.24;34.16